createdAt,value
2018-12-19T00:01:01.572Z,4.80
2018-12-19T00:03:32.572Z,5.13
2018-12-19T00:06:12.422Z,5.10
2018-12-19T00:08:45.665Z,4.53
2018-12-19T00:11:36.383Z,5.07
2018-12-19T00:14:16.517Z,4.63
2018-12-19T00:16:49.662Z,4.20
2018-12-19T00:19:19.113Z,4.23
2018-12-19T00:21:50.030Z,3.83
2018-12-19T00:24:38.166Z,3.93
2018-12-19T00:27:18.420Z,3.73
2018-12-19T00:32:56.531Z,3.83
2018-12-19T00:35:27.917Z,4.03
2018-12-19T00:37:59.140Z,4.00
2018-12-19T00:40:32.378Z,4.00
2018-12-19T00:43:01.868Z,4.10
2018-12-19T00:45:41.483Z,3.80
2018-12-19T00:48:21.195Z,3.90
2018-12-19T00:50:52.164Z,4.10
2018-12-19T00:53:23.019Z,4.23
2018-12-19T00:55:56.535Z,4.10
2018-12-19T00:58:27.832Z,4.63
2018-12-19T01:01:01.127Z,4.33
2018-12-19T01:03:32.660Z,4.00
2018-12-19T01:06:23.129Z,4.70
2018-12-19T01:09:15.974Z,5.07
2018-12-19T01:11:49.329Z,4.37
2018-12-19T01:14:29.379Z,4.00
2018-12-19T01:17:03.054Z,4.40
2018-12-19T01:19:37.082Z,4.93
2018-12-19T01:22:24.001Z,5.17
2018-12-19T01:24:57.999Z,4.87
2018-12-19T01:27:35.715Z,5.57
2018-12-19T01:30:08.806Z,5.10
2018-12-19T01:32:40.242Z,5.60
2018-12-19T01:35:20.004Z,5.90
2018-12-19T01:37:53.402Z,5.57
2018-12-19T01:40:24.840Z,5.40
2018-12-19T01:43:13.474Z,5.60
2018-12-19T01:46:04.345Z,6.17
2018-12-19T01:48:38.390Z,5.50
2018-12-19T01:51:13.410Z,5.50
2018-12-19T01:53:49.342Z,6.30
2018-12-19T01:59:22.505Z,5.73
2018-12-19T02:01:53.507Z,5.63
2018-12-19T02:04:33.372Z,6.00
2018-12-19T02:07:21.660Z,6.23
2018-12-19T02:10:01.364Z,5.73
2018-12-19T02:12:42.296Z,5.93
2018-12-19T02:15:30.692Z,6.60
2018-12-19T02:18:04.587Z,6.17
2018-12-19T02:20:38.469Z,6.07
2018-12-19T02:23:09.966Z,6.33
2018-12-19T02:25:49.894Z,6.43
2018-12-19T02:28:20.907Z,6.60
2018-12-19T02:31:00.816Z,6.73
2018-12-19T02:33:35.441Z,6.27
2018-12-19T02:36:05.056Z,6.00
2018-12-19T02:38:36.005Z,6.57
2018-12-19T02:41:06.783Z,6.43
2018-12-19T02:43:38.002Z,6.60
2018-12-19T02:46:09.500Z,5.90
2018-12-19T02:48:40.520Z,6.73
2018-12-19T02:51:13.817Z,6.30
2018-12-19T02:53:47.731Z,6.87
2018-12-19T02:56:17.223Z,6.20
2018-12-19T02:58:48.354Z,7.00
2018-12-19T03:01:19.088Z,6.47
2018-12-19T03:03:52.503Z,6.60
2018-12-19T03:06:25.631Z,6.80
2018-12-19T03:08:59.517Z,6.67
2018-12-19T03:11:29.007Z,6.40
2018-12-19T03:14:02.539Z,6.70
2018-12-19T03:16:36.592Z,6.40
2018-12-19T03:19:16.709Z,7.33
2018-12-19T03:21:47.736Z,6.93
2018-12-19T03:24:18.830Z,7.23
2018-12-19T03:26:58.658Z,7.13
2018-12-19T03:29:38.482Z,7.47
2018-12-19T03:32:09.489Z,6.93
2018-12-19T03:34:42.785Z,6.77
2018-12-19T03:37:16.599Z,6.83
2018-12-19T03:39:50.534Z,7.20
2018-12-19T03:42:22.069Z,7.00
2018-12-19T03:44:55.341Z,6.93
2018-12-19T03:47:29.258Z,7.00
2018-12-19T03:50:07.060Z,7.70
2018-12-19T03:52:36.582Z,7.37
2018-12-19T03:55:09.920Z,6.73
2018-12-19T03:57:43.074Z,8.03
2018-12-19T04:00:14.883Z,7.47
2018-12-19T04:02:46.326Z,7.40
2018-12-19T04:05:19.664Z,7.80
2018-12-19T04:08:00.155Z,7.70
2018-12-19T04:10:39.914Z,6.70
2018-12-19T04:13:30.158Z,7.47
2018-12-19T04:16:10.404Z,7.80
2018-12-19T04:18:43.790Z,6.97
2018-12-19T04:21:17.770Z,7.17
2018-12-19T04:23:58.013Z,7.37
2018-12-19T04:29:36.511Z,7.37
2018-12-19T04:32:05.898Z,7.83
2018-12-19T04:34:39.056Z,7.03
2018-12-19T04:37:18.560Z,7.87
2018-12-19T04:40:05.368Z,7.63
2018-12-19T04:42:41.620Z,8.50
2018-12-19T04:45:10.690Z,8.57
2018-12-19T04:47:50.442Z,7.73
2018-12-19T04:50:23.897Z,8.10
2018-12-19T04:52:55.218Z,8.90
2018-12-19T04:55:36.963Z,8.80
2018-12-19T04:58:10.572Z,8.10
2018-12-19T05:00:48.253Z,8.33
2018-12-19T05:03:36.954Z,8.17
2018-12-19T05:06:08.416Z,8.57
2018-12-19T05:08:48.188Z,8.87
2018-12-19T05:11:21.677Z,8.50
2018-12-19T05:13:58.896Z,8.77
2018-12-19T05:16:36.791Z,8.40
2018-12-19T05:19:10.068Z,9.07
2018-12-19T05:21:41.424Z,8.53
2018-12-19T05:24:22.942Z,8.80
2018-12-19T05:26:56.345Z,8.43
2018-12-19T05:29:27.823Z,8.50
2018-12-19T05:31:58.734Z,9.07
2018-12-19T05:34:29.543Z,9.10
2018-12-19T05:37:09.427Z,8.80
2018-12-19T05:39:49.266Z,9.07
2018-12-19T05:42:22.948Z,9.27
2018-12-19T05:45:03.322Z,9.07
2018-12-19T05:47:34.497Z,9.27
2018-12-19T05:50:06.727Z,9.97
2018-12-19T05:52:36.465Z,9.37
2018-12-19T05:55:16.129Z,9.13
2018-12-19T05:57:49.579Z,9.87
2018-12-19T06:00:23.522Z,9.33
2018-12-19T06:02:54.200Z,9.63
2018-12-19T06:05:27.661Z,9.53
2018-12-19T06:08:00.701Z,9.17
2018-12-19T06:10:41.140Z,9.07
2018-12-19T06:13:11.940Z,8.80
2018-12-19T06:15:49.420Z,9.63
2018-12-19T06:18:18.859Z,9.40
2018-12-19T06:20:58.897Z,9.77
2018-12-19T06:23:32.204Z,9.03
2018-12-19T06:26:03.606Z,9.30
2018-12-19T06:28:37.038Z,9.83
2018-12-19T06:31:10.132Z,9.20
2018-12-19T06:33:44.162Z,9.47
2018-12-19T06:36:24.709Z,9.20
2018-12-19T06:39:04.514Z,10.10
2018-12-19T06:41:38.234Z,9.27
2018-12-19T06:44:28.788Z,9.90
2018-12-19T06:47:16.860Z,9.77
2018-12-19T06:49:49.837Z,9.40
2018-12-19T06:52:23.857Z,9.50
2018-12-19T06:55:03.389Z,9.73
2018-12-19T06:57:43.284Z,10.40
2018-12-19T07:00:16.656Z,9.33
2018-12-19T07:03:07.393Z,9.97
2018-12-19T07:05:47.519Z,11.63
2018-12-19T07:08:18.435Z,10.10
2018-12-19T07:13:58.432Z,10.20
2018-12-19T07:16:46.326Z,9.63
2018-12-19T07:19:26.686Z,9.50
2018-12-19T07:22:06.504Z,9.97
2018-12-19T07:24:37.584Z,10.30
2018-12-19T07:30:11.496Z,10.40
2018-12-19T07:32:52.386Z,9.60
2018-12-19T07:35:32.126Z,10.20
2018-12-19T07:38:05.580Z,9.43
2018-12-19T07:43:38.555Z,10.57
2018-12-19T07:46:09.631Z,9.70
2018-12-19T07:48:50.679Z,9.77
2018-12-19T07:51:41.260Z,8.90
2018-12-19T07:54:32.137Z,9.47
2018-12-19T07:57:12.586Z,9.07
2018-12-19T08:00:00.922Z,9.73
2018-12-19T08:02:32.273Z,10.07
2018-12-19T08:05:05.838Z,9.77
2018-12-19T08:07:39.582Z,9.77
2018-12-19T08:10:21.397Z,9.40
2018-12-19T08:12:52.407Z,10.13
2018-12-19T08:15:32.098Z,9.73
2018-12-19T08:18:11.903Z,9.43
2018-12-19T08:20:41.362Z,8.80
2018-12-19T08:23:14.684Z,10.33
2018-12-19T08:25:52.614Z,9.93
2018-12-19T08:31:26.257Z,9.63
2018-12-19T08:34:14.078Z,10.00
2018-12-19T08:36:56.765Z,9.23
2018-12-19T08:39:36.523Z,9.90
2018-12-19T08:42:26.761Z,9.93
2018-12-19T08:45:14.871Z,9.53
2018-12-19T08:47:55.311Z,10.30
2018-12-19T08:50:28.501Z,10.17
2018-12-19T08:53:02.329Z,10.70
2018-12-19T08:55:42.711Z,11.00
2018-12-19T08:58:22.668Z,10.83
2018-12-19T09:01:02.636Z,12.97
2018-12-19T09:03:42.635Z,9.93
2018-12-19T09:06:22.588Z,9.87
2018-12-19T09:09:10.835Z,10.00
2018-12-19T09:14:47.841Z,10.83
2018-12-19T09:17:19.627Z,10.20
2018-12-19T09:19:59.705Z,11.63
2018-12-19T09:22:29.277Z,11.00
2018-12-19T09:25:17.296Z,10.77
2018-12-19T09:30:54.263Z,10.40
2018-12-19T09:33:42.025Z,10.20
2018-12-19T09:36:15.883Z,10.77
2018-12-19T09:38:46.502Z,10.67
2018-12-19T09:41:25.949Z,10.50
2018-12-19T09:47:12.441Z,10.57
2018-12-19T09:52:54.399Z,10.73
2018-12-19T09:58:30.429Z,10.20
2018-12-19T10:01:05.511Z,10.07
2018-12-19T10:03:36.765Z,10.80
2018-12-19T10:06:16.592Z,10.43
2018-12-19T10:08:56.301Z,10.83
2018-12-19T10:11:36.084Z,11.23
2018-12-19T10:14:24.619Z,10.73
2018-12-19T10:17:05.011Z,11.43
2018-12-19T10:19:44.827Z,11.07
2018-12-19T10:28:15.637Z,11.77
2018-12-19T10:30:59.160Z,11.53
2018-12-19T10:33:39.306Z,11.37
2018-12-19T10:36:08.453Z,11.40
2018-12-19T10:38:39.416Z,12.73
2018-12-19T10:41:25.722Z,11.33
2018-12-19T10:43:57.664Z,12.30
2018-12-19T10:46:31.710Z,12.43
2018-12-19T10:49:18.250Z,11.57
2018-12-19T10:52:06.314Z,11.47
2018-12-19T10:54:46.991Z,11.73
2018-12-19T10:57:17.855Z,11.43
2018-12-19T11:02:54.334Z,10.53
2018-12-19T11:05:34.146Z,11.47
2018-12-19T11:08:04.998Z,11.30
2018-12-19T11:10:45.185Z,11.47
2018-12-19T11:13:25.468Z,11.10
2018-12-19T11:15:58.880Z,12.30
2018-12-19T11:18:39.223Z,11.67
2018-12-19T11:21:26.688Z,11.60
2018-12-19T11:24:17.614Z,12.67
2018-12-19T11:26:58.058Z,12.90
2018-12-19T11:29:39.752Z,12.30
2018-12-19T11:32:10.607Z,11.80
2018-12-19T11:34:50.204Z,11.33
2018-12-19T11:37:33.041Z,12.07
2018-12-19T11:40:12.778Z,11.40
2018-12-19T11:42:46.149Z,11.80
2018-12-19T11:45:17.662Z,11.53
2018-12-19T11:47:58.441Z,11.97
2018-12-19T11:50:29.487Z,11.70
2018-12-19T11:56:09.564Z,11.20
2018-12-19T11:58:49.969Z,12.00
2018-12-19T12:01:27.557Z,12.53
2018-12-19T12:04:08.109Z,11.43
2018-12-19T12:06:54.213Z,12.67
2018-12-19T12:09:24.201Z,11.97
2018-12-19T12:11:55.552Z,12.30
2018-12-19T12:17:40.454Z,12.27
2018-12-19T12:20:21.164Z,11.80
2018-12-19T12:22:52.780Z,11.87
2018-12-19T12:25:26.072Z,10.63
2018-12-19T12:28:06.433Z,12.00
2018-12-19T12:30:46.085Z,12.30
2018-12-19T12:33:36.207Z,12.17
2018-12-19T12:36:16.673Z,11.10
2018-12-19T12:38:50.089Z,13.03
2018-12-19T12:41:23.901Z,13.30
2018-12-19T12:43:55.465Z,12.83
2018-12-19T12:46:26.468Z,13.20
2018-12-19T12:48:57.230Z,11.97
2018-12-19T12:51:30.476Z,12.40
2018-12-19T12:54:04.351Z,13.03
2018-12-19T12:56:44.760Z,12.77
2018-12-19T12:59:24.518Z,12.80
2018-12-19T13:01:57.830Z,11.73
2018-12-19T13:04:38.061Z,12.93
2018-12-19T13:07:11.132Z,13.67
2018-12-19T13:09:40.299Z,13.60
2018-12-19T13:12:11.282Z,13.03
2018-12-19T13:17:22.830Z,13.60
2018-12-19T13:20:11.270Z,13.67
2018-12-19T13:22:45.191Z,13.83
2018-12-19T13:25:15.774Z,14.13
2018-12-19T13:30:52.547Z,14.47
2018-12-19T13:33:25.858Z,15.07
2018-12-19T13:36:06.490Z,15.17
2018-12-19T13:38:47.098Z,14.70
2018-12-19T13:41:27.231Z,14.97
2018-12-19T13:44:00.946Z,14.97
2018-12-19T13:46:48.489Z,15.03
2018-12-19T13:52:05.652Z,16.17
2018-12-19T13:54:45.323Z,14.53
2018-12-19T13:57:25.145Z,13.17
2018-12-19T14:00:05.054Z,15.27
2018-12-19T14:02:38.833Z,15.30
2018-12-19T14:05:19.098Z,14.53
2018-12-19T14:07:52.166Z,14.90
2018-12-19T14:10:23.654Z,15.87
2018-12-19T14:13:03.417Z,14.87
2018-12-19T14:15:49.717Z,15.87
2018-12-19T14:18:19.103Z,14.83
2018-12-19T14:21:05.228Z,15.70
2018-12-19T14:23:43.324Z,15.37
2018-12-19T14:26:23.693Z,15.03
2018-12-19T14:28:55.101Z,15.63
2018-12-19T14:31:35.269Z,15.13
2018-12-19T14:34:08.539Z,15.03
2018-12-19T14:36:48.809Z,14.73
2018-12-19T14:39:37.104Z,14.93
2018-12-19T14:42:19.123Z,15.07
2018-12-19T14:44:50.537Z,15.57
2018-12-19T14:47:30.306Z,15.87
2018-12-19T14:50:10.175Z,15.70
2018-12-19T14:52:50.299Z,15.80
2018-12-19T14:55:23.849Z,15.83
2018-12-19T15:00:59.766Z,15.30
2018-12-19T15:03:31.175Z,15.37
2018-12-19T15:06:04.570Z,16.37
2018-12-19T15:11:32.985Z,15.67
2018-12-19T15:14:04.324Z,16.13
2018-12-19T15:16:37.923Z,15.93
2018-12-19T15:21:45.822Z,15.37
2018-12-19T15:24:17.047Z,15.53
2018-12-19T15:26:57.143Z,15.57
2018-12-19T15:29:25.974Z,15.90
2018-12-19T15:31:58.072Z,14.57
2018-12-19T15:34:37.718Z,15.67
2018-12-19T15:37:17.504Z,16.03
2018-12-19T15:39:48.493Z,15.20
2018-12-19T15:42:19.616Z,16.33
2018-12-19T15:44:59.621Z,15.43
2018-12-19T15:50:38.218Z,14.53
2018-12-19T15:53:24.531Z,15.63
2018-12-19T15:55:54.516Z,14.57
2018-12-19T15:58:31.803Z,14.60
2018-12-19T16:01:02.794Z,14.97
2018-12-19T16:03:48.715Z,15.03
2018-12-19T16:06:28.938Z,15.77
2018-12-19T16:09:09.484Z,14.90
2018-12-19T16:11:40.707Z,14.70
2018-12-19T16:14:27.602Z,14.80
2018-12-19T16:16:59.035Z,14.83
2018-12-19T16:22:34.711Z,15.30
2018-12-19T16:25:08.061Z,15.33
2018-12-19T16:27:59.041Z,15.80
2018-12-19T16:30:30.378Z,14.83
2018-12-19T16:33:01.390Z,15.10
2018-12-19T16:35:39.585Z,15.70
2018-12-19T16:38:10.305Z,14.57
2018-12-19T16:40:50.264Z,15.67
2018-12-19T16:43:27.543Z,15.50
2018-12-19T16:46:07.842Z,15.53
2018-12-19T16:48:38.770Z,15.70
2018-12-19T16:51:19.827Z,14.40
2018-12-19T16:53:50.824Z,14.27
2018-12-19T16:56:21.827Z,17.13
2018-12-19T16:59:02.703Z,15.70
2018-12-19T17:01:33.750Z,16.23
2018-12-19T17:04:05.157Z,16.17
2018-12-19T17:06:44.963Z,16.40
2018-12-19T17:09:18.378Z,16.23
2018-12-19T17:11:49.850Z,17.00
2018-12-19T17:14:38.087Z,17.00
2018-12-19T17:17:25.633Z,17.03
2018-12-19T17:20:03.563Z,16.00
2018-12-19T17:22:37.425Z,16.87
2018-12-19T17:25:25.198Z,16.00
2018-12-19T17:28:11.935Z,15.80
2018-12-19T17:30:45.869Z,18.73
2018-12-19T17:36:09.928Z,17.30
2018-12-19T17:38:50.046Z,16.93
2018-12-19T17:44:36.868Z,16.73
2018-12-19T17:47:25.209Z,17.07
2018-12-19T17:50:13.102Z,15.43
2018-12-19T17:52:44.609Z,16.33
2018-12-19T17:55:24.216Z,16.33
2018-12-19T17:57:57.621Z,17.23
2018-12-19T18:03:33.457Z,16.07
2018-12-19T18:06:21.340Z,18.10
2018-12-19T18:09:04.065Z,16.23
2018-12-19T18:11:34.849Z,18.53
2018-12-19T18:14:14.840Z,17.27
2018-12-19T18:16:54.706Z,17.60
2018-12-19T18:19:34.662Z,19.23
2018-12-19T18:22:05.884Z,18.47
2018-12-19T18:24:45.823Z,18.77
2018-12-19T18:27:19.203Z,18.50
2018-12-19T18:29:58.848Z,18.60
2018-12-19T18:32:29.852Z,19.63
2018-12-19T18:35:00.943Z,19.70
2018-12-19T18:37:51.255Z,19.33
2018-12-19T18:40:31.406Z,20.20
2018-12-19T18:43:02.686Z,20.70
2018-12-19T18:45:42.292Z,19.83
2018-12-19T18:48:22.099Z,20.90
2018-12-19T18:51:01.657Z,20.87
2018-12-19T18:53:42.621Z,19.90
2018-12-19T18:56:13.726Z,21.23
2018-12-19T18:58:53.538Z,20.13
2018-12-19T19:01:33.506Z,20.47
2018-12-19T19:04:04.541Z,21.00
2018-12-19T19:06:52.995Z,19.83
2018-12-19T19:09:27.061Z,20.40
2018-12-19T19:11:56.491Z,20.67
2018-12-19T19:14:27.446Z,20.83
2018-12-19T19:17:07.271Z,21.23
2018-12-19T19:19:38.215Z,20.33
2018-12-19T19:22:17.846Z,20.67
2018-12-19T19:24:49.098Z,20.47
2018-12-19T19:27:29.557Z,20.67
2018-12-19T19:30:09.497Z,19.80
2018-12-19T19:32:43.131Z,20.70
2018-12-19T19:35:30.898Z,20.03
2018-12-19T19:38:08.839Z,19.27
2018-12-19T19:40:42.587Z,20.23
2018-12-19T19:43:26.525Z,21.30
2018-12-19T19:45:58.200Z,20.17
2018-12-19T19:48:38.369Z,19.33
2018-12-19T19:51:18.202Z,20.20
2018-12-19T19:53:58.020Z,20.87
2018-12-19T19:56:48.467Z,20.87
2018-12-19T19:59:28.806Z,22.00
2018-12-19T20:02:00.054Z,20.27
2018-12-19T20:04:39.690Z,20.37
2018-12-19T20:10:22.598Z,22.00
2018-12-19T20:13:04.773Z,21.13
2018-12-19T20:15:36.472Z,21.20
2018-12-19T20:18:10.334Z,21.43
2018-12-19T20:20:41.698Z,21.17
2018-12-19T20:23:15.015Z,20.47
2018-12-19T20:25:44.560Z,21.93
2018-12-19T20:28:15.803Z,21.77
2018-12-19T20:33:56.439Z,22.50
2018-12-19T20:36:36.526Z,20.50
2018-12-19T20:39:10.052Z,20.80
2018-12-19T20:41:40.307Z,20.97
2018-12-19T20:44:11.519Z,20.93
2018-12-19T20:46:43.192Z,20.50
2018-12-19T20:49:16.221Z,20.07
2018-12-19T20:51:47.826Z,22.47
2018-12-19T20:54:37.914Z,20.10
2018-12-19T20:57:18.335Z,20.03
2018-12-19T20:59:56.585Z,19.67
2018-12-19T21:02:36.973Z,21.13
2018-12-19T21:05:14.495Z,20.17
2018-12-19T21:07:43.693Z,20.63
2018-12-19T21:10:23.230Z,21.67
2018-12-19T21:12:53.999Z,21.50
2018-12-19T21:15:34.781Z,21.70
2018-12-19T21:18:20.238Z,22.43
2018-12-19T21:20:53.915Z,22.30
2018-12-19T21:23:44.494Z,21.43
2018-12-19T21:26:18.538Z,21.80
2018-12-19T21:28:58.759Z,20.93
2018-12-19T21:31:29.542Z,21.63
2018-12-19T21:34:06.891Z,23.23
2018-12-19T21:36:44.766Z,22.83
2018-12-19T21:39:25.252Z,23.07
2018-12-19T21:41:58.426Z,22.80
2018-12-19T21:44:38.883Z,22.43
2018-12-19T21:47:16.182Z,22.77
2018-12-19T21:49:53.902Z,23.30
2018-12-19T21:52:25.535Z,22.53
2018-12-19T21:54:58.675Z,20.73
2018-12-19T21:57:31.806Z,22.90
2018-12-19T22:00:08.101Z,23.33
2018-12-19T22:02:41.588Z,23.50
2018-12-19T22:05:11.001Z,23.23
2018-12-19T22:07:50.955Z,23.20
2018-12-19T22:10:21.846Z,23.67
2018-12-19T22:12:53.010Z,23.33
2018-12-19T22:15:27.112Z,23.57
2018-12-19T22:18:02.556Z,24.53
2018-12-19T22:20:32.323Z,24.17
2018-12-19T22:23:05.489Z,23.67
2018-12-19T22:25:45.710Z,23.73
2018-12-19T22:28:26.490Z,23.67
2018-12-19T22:31:06.501Z,23.53
2018-12-19T22:33:37.420Z,24.67
2018-12-19T22:36:08.572Z,22.80
2018-12-19T22:38:48.501Z,23.50
2018-12-19T22:41:30.289Z,24.67
2018-12-19T22:44:10.256Z,23.97
2018-12-19T22:47:00.839Z,23.40
2018-12-19T22:49:32.718Z,24.30
2018-12-19T22:52:03.389Z,24.50
2018-12-19T22:54:53.495Z,24.53
2018-12-19T22:57:27.352Z,25.07
2018-12-19T23:00:10.711Z,24.50
2018-12-19T23:02:47.388Z,24.33
2018-12-19T23:05:33.003Z,25.00
2018-12-19T23:08:10.641Z,23.00
2018-12-19T23:10:44.347Z,24.07
2018-12-19T23:13:17.998Z,24.27
2018-12-19T23:15:47.541Z,24.87
2018-12-19T23:18:27.194Z,22.37
2018-12-19T23:21:07.341Z,24.33
2018-12-19T23:23:38.185Z,24.30
2018-12-19T23:26:18.005Z,23.17
2018-12-19T23:28:51.022Z,23.90
2018-12-19T23:37:26.340Z,21.40
2018-12-19T23:40:12.534Z,22.40
2018-12-19T23:42:44.210Z,22.30
2018-12-19T23:45:24.126Z,22.13
2018-12-19T23:51:04.510Z,24.33
2018-12-19T23:53:34.032Z,22.60
2018-12-19T23:56:04.923Z,21.50
2018-12-19T23:58:44.744Z,22.17
